createdAt,value
2022-10-11T00:00:08.726Z,83.64
2022-10-11T00:01:10.549Z,83.59
2022-10-11T00:02:12.047Z,83.84
2022-10-11T00:03:14.594Z,83.43
2022-10-11T00:04:16.164Z,83.53
2022-10-11T00:05:18.044Z,83.52
2022-10-11T00:06:19.551Z,83.25
2022-10-11T00:07:21.035Z,83.36
2022-10-11T00:08:22.967Z,83.04
2022-10-11T00:09:24.458Z,83.49
2022-10-11T00:10:26.024Z,83.46
2022-10-11T00:11:27.790Z,83.07
2022-10-11T00:12:29.224Z,83.35
2022-10-11T00:13:30.823Z,83.25
2022-10-11T00:14:33.971Z,83.23
2022-10-11T00:15:35.576Z,83.00
2022-10-11T00:16:41.214Z,83.18
2022-10-11T00:17:43.111Z,83.32
2022-10-11T00:18:44.540Z,83.41
2022-10-11T00:19:46.434Z,83.62
2022-10-11T00:20:47.966Z,83.48
2022-10-11T00:21:49.955Z,83.28
2022-10-11T00:22:51.371Z,83.28
2022-10-11T00:23:52.847Z,83.66
2022-10-11T00:24:54.316Z,83.59
2022-10-11T00:26:01.519Z,83.25
2022-10-11T00:27:03.631Z,83.33
2022-10-11T00:28:05.941Z,83.72
2022-10-11T00:29:07.524Z,83.31
2022-10-11T00:30:10.485Z,83.60
2022-10-11T00:31:13.842Z,83.36
2022-10-11T00:32:15.412Z,83.64
2022-10-11T00:33:16.891Z,83.72
2022-10-11T00:34:18.395Z,83.81
2022-10-11T00:35:19.818Z,83.74
2022-10-11T00:36:22.624Z,83.27
2022-10-11T00:37:24.089Z,83.61
2022-10-11T00:38:25.647Z,83.42
2022-10-11T00:39:27.168Z,83.47
2022-10-11T00:40:28.592Z,83.58
2022-10-11T00:41:30.422Z,83.51
2022-10-11T00:42:32.033Z,83.41
2022-10-11T00:43:33.796Z,83.50
2022-10-11T00:44:35.357Z,83.40
2022-10-11T00:45:36.721Z,83.52
2022-10-11T00:46:40.707Z,83.34
2022-10-11T00:47:42.153Z,83.18
2022-10-11T00:48:50.749Z,83.24
2022-10-11T00:49:59.256Z,83.49
2022-10-11T00:51:04.485Z,83.48
2022-10-11T00:52:15.308Z,83.17
2022-10-11T00:53:16.795Z,83.10
2022-10-11T00:54:23.867Z,83.09
2022-10-11T00:55:29.351Z,83.29
2022-10-11T00:56:35.667Z,83.16
2022-10-11T00:57:42.245Z,83.58
2022-10-11T00:58:44.155Z,83.28
2022-10-11T00:59:49.781Z,83.37
2022-10-11T01:00:51.410Z,83.00
2022-10-11T01:01:53.671Z,82.94
2022-10-11T01:02:55.255Z,82.90
2022-10-11T01:03:57.425Z,83.25
2022-10-11T01:05:25.192Z,82.96
2022-10-11T01:06:20.770Z,83.10
2022-10-11T01:07:22.803Z,83.13
2022-10-11T01:08:25.606Z,82.67
2022-10-11T01:09:27.396Z,82.75
2022-10-11T01:10:29.586Z,82.68
2022-10-11T01:11:31.644Z,82.81
2022-10-11T01:12:33.654Z,82.98
2022-10-11T01:13:59.290Z,82.97
2022-10-11T01:15:17.291Z,83.18
2022-10-11T01:16:42.277Z,83.10
2022-10-11T01:17:51.914Z,82.76
2022-10-11T01:19:15.302Z,82.69
2022-10-11T01:20:38.226Z,82.80
2022-10-11T01:21:50.553Z,82.98
2022-10-11T01:23:19.442Z,82.58
2022-10-11T01:25:13.204Z,82.95
2022-10-11T01:26:32.972Z,82.91
2022-10-11T01:27:57.325Z,82.87
2022-10-11T01:29:16.835Z,82.83
2022-10-11T01:30:18.396Z,83.19
2022-10-11T01:31:36.190Z,82.85
2022-10-11T01:32:46.716Z,82.97
2022-10-11T01:34:04.130Z,83.06
2022-10-11T01:35:20.454Z,82.84
2022-10-11T01:36:28.038Z,83.18
2022-10-11T01:37:29.463Z,83.13
2022-10-11T01:38:56.550Z,83.17
2022-10-11T01:40:05.861Z,83.20
2022-10-11T01:41:16.749Z,83.23
2022-10-11T01:42:20.074Z,83.23
2022-10-11T01:43:24.282Z,83.43
2022-10-11T01:44:27.050Z,83.61
2022-10-11T01:45:29.558Z,83.25
2022-10-11T01:46:32.390Z,83.24
2022-10-11T01:47:33.830Z,83.47
2022-10-11T01:48:51.389Z,83.03
2022-10-11T01:49:58.581Z,83.08
2022-10-11T01:51:03.343Z,83.32
2022-10-11T01:52:06.725Z,83.28
2022-10-11T01:53:45.440Z,83.08
2022-10-11T01:55:16.955Z,83.43
2022-10-11T01:56:56.488Z,83.79
2022-10-11T01:58:06.870Z,83.57
2022-10-11T01:59:23.569Z,83.84
2022-10-11T02:00:31.821Z,83.98
2022-10-11T02:01:58.383Z,83.64
2022-10-11T02:03:06.827Z,84.17
2022-10-11T02:04:32.883Z,83.84
2022-10-11T02:05:51.737Z,83.82
2022-10-11T02:07:31.095Z,84.19
2022-10-11T02:09:08.231Z,84.33
2022-10-11T02:10:09.820Z,84.46
2022-10-11T02:11:38.663Z,84.31
2022-10-11T02:12:44.687Z,84.28
2022-10-11T02:14:11.097Z,84.25
2022-10-11T02:15:14.732Z,84.36
2022-10-11T02:16:19.900Z,84.41
2022-10-11T02:17:24.552Z,84.44
2022-10-11T02:18:32.196Z,84.09
2022-10-11T02:19:41.417Z,84.16
2022-10-11T02:20:45.344Z,84.24
2022-10-11T02:21:53.157Z,84.10
2022-10-11T02:23:03.421Z,83.99
2022-10-11T02:24:22.204Z,84.30
2022-10-11T02:25:26.918Z,84.15
2022-10-11T02:26:31.467Z,84.13
2022-10-11T02:27:36.622Z,83.86
2022-10-11T02:28:42.291Z,83.53
2022-10-11T02:29:46.004Z,83.40
2022-10-11T02:30:50.811Z,83.21
2022-10-11T02:31:54.224Z,83.48
2022-10-11T02:32:58.741Z,83.62
2022-10-11T02:34:05.336Z,83.63
2022-10-11T02:35:08.144Z,83.36
2022-10-11T02:36:19.725Z,83.42
2022-10-11T02:37:42.566Z,83.76
2022-10-11T02:38:49.883Z,83.48
2022-10-11T02:40:01.263Z,83.67
2022-10-11T02:41:25.596Z,83.84
2022-10-11T02:42:37.169Z,83.86
2022-10-11T02:43:45.674Z,83.94
2022-10-11T02:44:59.713Z,84.00
2022-10-11T02:46:02.461Z,83.67
2022-10-11T02:47:05.512Z,83.92
2022-10-11T02:48:08.129Z,84.02
2022-10-11T02:49:10.436Z,83.64
2022-10-11T02:50:12.551Z,83.95
2022-10-11T02:51:14.824Z,83.46
2022-10-11T02:52:16.596Z,83.52
2022-10-11T02:53:18.095Z,83.86
2022-10-11T02:54:19.577Z,83.36
2022-10-11T02:55:21.308Z,83.53
2022-10-11T02:56:22.770Z,83.51
2022-10-11T02:57:24.592Z,83.16
2022-10-11T02:58:26.266Z,83.59
2022-10-11T02:59:27.932Z,83.48
2022-10-11T03:00:29.613Z,83.96
2022-10-11T03:01:31.128Z,83.60
2022-10-11T03:02:33.010Z,83.97
2022-10-11T03:03:34.484Z,84.05
2022-10-11T03:04:36.735Z,83.88
2022-10-11T03:05:41.740Z,84.02
2022-10-11T03:06:43.689Z,83.55
2022-10-11T03:07:45.487Z,84.32
2022-10-11T03:08:46.972Z,83.69
2022-10-11T03:09:48.441Z,83.80
2022-10-11T03:10:49.956Z,83.96
2022-10-11T03:11:51.431Z,83.82
2022-10-11T03:12:52.906Z,83.71
2022-10-11T03:13:54.380Z,83.50
2022-10-11T03:14:55.870Z,83.64
2022-10-11T03:16:07.268Z,83.66
2022-10-11T03:17:34.437Z,83.85
2022-10-11T03:18:31.488Z,84.23
2022-10-11T03:19:33.686Z,83.84
2022-10-11T03:20:35.407Z,84.23
2022-10-11T03:21:36.952Z,84.13
2022-10-11T03:22:38.821Z,84.10
2022-10-11T03:23:40.470Z,84.07
2022-10-11T03:24:41.911Z,83.75
2022-10-11T03:25:45.911Z,83.75
2022-10-11T03:26:47.425Z,84.03
2022-10-11T03:27:48.940Z,83.96
2022-10-11T03:28:50.445Z,83.79
2022-10-11T03:29:51.930Z,83.90
2022-10-11T03:30:53.501Z,83.93
2022-10-11T03:31:55.221Z,84.16
2022-10-11T03:32:57.195Z,84.25
2022-10-11T03:33:58.632Z,83.85
2022-10-11T03:35:00.184Z,84.08
2022-10-11T03:36:01.721Z,84.19
2022-10-11T03:37:03.398Z,84.40
2022-10-11T03:38:05.182Z,84.14
2022-10-11T03:39:06.681Z,84.36
2022-10-11T03:40:08.908Z,84.55
2022-10-11T03:41:10.356Z,84.17
2022-10-11T03:42:12.943Z,84.55
2022-10-11T03:43:14.813Z,84.46
2022-10-11T03:44:16.336Z,84.64
2022-10-11T03:45:17.881Z,84.37
2022-10-11T03:46:19.319Z,84.60
2022-10-11T03:47:21.147Z,84.85
2022-10-11T03:48:22.609Z,84.51
2022-10-11T03:49:24.756Z,84.54
2022-10-11T03:50:26.273Z,84.42
2022-10-11T03:51:27.810Z,84.45
2022-10-11T03:52:29.686Z,84.90
2022-10-11T03:53:31.116Z,84.61
2022-10-11T03:54:32.833Z,84.66
2022-10-11T03:55:34.581Z,84.36
2022-10-11T03:56:36.122Z,84.36
2022-10-11T03:57:38.000Z,84.47
2022-10-11T03:58:40.763Z,84.47
2022-10-11T03:59:42.360Z,84.31
2022-10-11T04:00:43.851Z,84.38
2022-10-11T04:01:45.388Z,84.67
2022-10-11T04:02:47.296Z,84.39
2022-10-11T04:03:48.825Z,84.69
2022-10-11T04:04:50.295Z,84.38
2022-10-11T04:05:51.818Z,84.72
2022-10-11T04:06:53.928Z,84.63
2022-10-11T04:07:55.412Z,84.46
2022-10-11T04:08:57.014Z,84.53
2022-10-11T04:09:59.080Z,84.52
2022-10-11T04:11:00.835Z,84.55
2022-10-11T04:12:02.792Z,84.89
2022-10-11T04:13:04.377Z,84.63
2022-10-11T04:14:05.916Z,84.82
2022-10-11T04:15:08.006Z,84.42
2022-10-11T04:16:09.452Z,84.63
2022-10-11T04:17:11.338Z,84.56
2022-10-11T04:18:12.952Z,84.55
2022-10-11T04:19:14.500Z,84.58
2022-10-11T04:20:16.192Z,84.70
2022-10-11T04:21:17.988Z,84.48
2022-10-11T04:22:19.822Z,84.69
2022-10-11T04:23:21.276Z,84.76
2022-10-11T04:24:22.967Z,84.92
2022-10-11T04:25:24.654Z,84.65
2022-10-11T04:26:26.451Z,85.00
2022-10-11T04:27:29.289Z,84.93
2022-10-11T04:28:30.875Z,84.95
2022-10-11T04:29:32.990Z,85.00
2022-10-11T04:30:34.738Z,84.94
2022-10-11T04:31:36.521Z,84.94
2022-10-11T04:32:37.972Z,84.63
2022-10-11T04:33:39.448Z,84.50
2022-10-11T04:34:41.056Z,84.12
2022-10-11T04:35:42.753Z,84.60
2022-10-11T04:36:49.600Z,84.56
2022-10-11T04:37:51.472Z,84.25
2022-10-11T04:38:56.076Z,84.59
2022-10-11T04:39:57.584Z,84.65
2022-10-11T04:41:14.010Z,84.94
2022-10-11T04:42:16.351Z,84.37
2022-10-11T04:43:19.085Z,84.77
2022-10-11T04:44:20.575Z,84.86
2022-10-11T04:45:22.282Z,84.67
2022-10-11T04:46:24.310Z,84.96
2022-10-11T04:47:26.026Z,85.02
2022-10-11T04:48:27.570Z,84.71
2022-10-11T04:49:29.012Z,84.99
2022-10-11T04:50:30.477Z,85.21
2022-10-11T04:51:33.818Z,84.93
2022-10-11T04:52:35.271Z,85.18
2022-10-11T04:53:36.787Z,84.78
2022-10-11T04:54:38.292Z,85.23
2022-10-11T04:55:39.816Z,84.93
2022-10-11T04:56:41.726Z,85.19
2022-10-11T04:57:43.296Z,84.68
2022-10-11T04:58:48.138Z,84.77
2022-10-11T04:59:50.392Z,84.98
2022-10-11T05:00:51.975Z,84.91
2022-10-11T05:01:53.828Z,84.90
2022-10-11T05:02:55.322Z,84.85
2022-10-11T05:03:56.875Z,84.65
2022-10-11T05:04:58.750Z,84.87
2022-10-11T05:06:05.474Z,85.01
2022-10-11T05:07:07.435Z,85.03
2022-10-11T05:08:08.869Z,85.31
2022-10-11T05:09:10.401Z,85.17
2022-10-11T05:10:11.899Z,85.19
2022-10-11T05:11:16.384Z,84.95
2022-10-11T05:12:17.826Z,84.70
2022-10-11T05:13:19.330Z,84.96
2022-10-11T05:14:20.933Z,84.95
2022-10-11T05:15:22.385Z,84.95
2022-10-11T05:16:24.685Z,84.74
2022-10-11T05:17:26.185Z,84.71
2022-10-11T05:18:28.130Z,85.00
2022-10-11T05:19:29.647Z,84.76
2022-10-11T05:20:31.093Z,84.91
2022-10-11T05:21:32.617Z,84.60
2022-10-11T05:22:34.225Z,84.58
2022-10-11T05:23:37.210Z,85.11
2022-10-11T05:24:38.716Z,85.09
2022-10-11T05:25:40.260Z,85.17
2022-10-11T05:26:41.727Z,85.04
2022-10-11T05:27:43.166Z,84.92
2022-10-11T05:28:44.955Z,84.92
2022-10-11T05:29:46.493Z,84.67
2022-10-11T05:30:47.950Z,85.02
2022-10-11T05:31:49.489Z,84.96
2022-10-11T05:32:50.936Z,84.44
2022-10-11T05:33:52.547Z,84.61
2022-10-11T05:34:53.985Z,84.35
2022-10-11T05:35:55.460Z,84.33
2022-10-11T05:36:57.330Z,84.19
2022-10-11T05:37:58.759Z,84.51
2022-10-11T05:39:00.239Z,84.08
2022-10-11T05:40:01.654Z,84.39
2022-10-11T05:41:04.554Z,84.59
2022-10-11T05:42:09.787Z,84.49
2022-10-11T05:43:11.528Z,84.17
2022-10-11T05:44:12.968Z,84.52
2022-10-11T05:45:14.438Z,84.62
2022-10-11T05:46:17.082Z,84.88
2022-10-11T05:47:18.517Z,84.76
2022-10-11T05:48:20.332Z,84.72
2022-10-11T05:49:21.841Z,84.37
2022-10-11T05:50:24.479Z,85.01
2022-10-11T05:51:26.497Z,85.14
2022-10-11T05:52:28.329Z,84.67
2022-10-11T05:53:30.318Z,84.63
2022-10-11T05:54:32.275Z,85.20
2022-10-11T05:55:38.169Z,84.87
2022-10-11T05:56:39.661Z,84.72
2022-10-11T05:57:41.204Z,84.78
2022-10-11T05:58:42.619Z,84.95
2022-10-11T05:59:44.028Z,84.86
2022-10-11T06:00:45.806Z,84.64
2022-10-11T06:01:47.292Z,84.92
2022-10-11T06:02:48.783Z,84.88
2022-10-11T06:03:50.953Z,84.66
2022-10-11T06:04:52.425Z,84.79
2022-10-11T06:05:57.013Z,84.61
2022-10-11T06:06:58.838Z,84.63
2022-10-11T06:08:00.255Z,84.70
2022-10-11T06:10:04.112Z,84.59
2022-10-11T06:11:13.689Z,84.67
2022-10-11T06:12:15.242Z,84.96
2022-10-11T06:13:16.689Z,84.77
2022-10-11T06:14:18.377Z,84.71
2022-10-11T06:15:19.867Z,85.00
2022-10-11T06:16:21.850Z,84.95
2022-10-11T06:17:24.006Z,85.03
2022-10-11T06:18:25.407Z,85.14
2022-10-11T06:19:26.802Z,84.96
2022-10-11T06:20:28.312Z,85.39
2022-10-11T06:21:48.751Z,85.27
2022-10-11T06:22:50.418Z,84.66
2022-10-11T06:23:56.843Z,84.69
2022-10-11T06:25:01.575Z,84.80
2022-10-11T06:26:07.942Z,84.81
2022-10-11T06:27:10.029Z,84.85
2022-10-11T06:28:11.458Z,85.10
2022-10-11T06:29:12.888Z,85.17
2022-10-11T06:30:14.713Z,85.06
2022-10-11T06:31:16.535Z,84.93
2022-10-11T06:32:18.472Z,84.78
2022-10-11T06:33:19.964Z,84.94
2022-10-11T06:34:21.517Z,84.58
2022-10-11T06:35:22.922Z,84.84
2022-10-11T06:36:24.677Z,84.96
2022-10-11T06:37:26.152Z,84.74
2022-10-11T06:38:27.646Z,84.88
2022-10-11T06:39:29.104Z,85.01
2022-10-11T06:40:30.862Z,85.10
2022-10-11T06:41:32.300Z,84.88
2022-10-11T06:42:33.774Z,84.75
2022-10-11T06:43:35.179Z,84.83
2022-10-11T06:44:36.639Z,84.99
2022-10-11T06:45:38.391Z,84.95
2022-10-11T06:46:39.926Z,84.81
2022-10-11T06:47:41.351Z,84.75
2022-10-11T06:48:43.982Z,84.89
2022-10-11T06:49:45.454Z,84.71
2022-10-11T06:50:59.568Z,84.65
2022-10-11T06:52:01.968Z,84.59
2022-10-11T06:53:03.471Z,84.91
2022-10-11T06:54:05.296Z,84.97
2022-10-11T06:55:07.652Z,84.83
2022-10-11T06:56:11.631Z,84.91
2022-10-11T06:57:13.107Z,84.93
2022-10-11T06:58:14.548Z,84.79
2022-10-11T06:59:16.015Z,84.51
2022-10-11T07:00:18.089Z,84.44
2022-10-11T07:01:21.575Z,84.76
2022-10-11T07:02:23.083Z,84.67
2022-10-11T07:03:24.719Z,84.52
2022-10-11T07:04:27.622Z,84.43
2022-10-11T07:05:31.982Z,84.53
2022-10-11T07:06:37.816Z,84.33
2022-10-11T07:07:39.255Z,84.40
2022-10-11T07:08:40.810Z,84.37
2022-10-11T07:09:42.202Z,84.41
2022-10-11T07:10:43.982Z,84.21
2022-10-11T07:11:46.316Z,84.21
2022-10-11T07:12:47.714Z,84.20
2022-10-11T07:13:54.637Z,84.37
2022-10-11T07:14:56.505Z,84.35
2022-10-11T07:16:00.933Z,84.06
2022-10-11T07:17:02.672Z,84.06
2022-10-11T07:18:04.313Z,84.04
2022-10-11T07:19:07.662Z,83.93
2022-10-11T07:20:10.054Z,84.04
2022-10-11T07:21:13.603Z,84.29
2022-10-11T07:22:15.048Z,83.91
2022-10-11T07:23:16.711Z,83.87
2022-10-11T07:24:18.524Z,83.59
2022-10-11T07:25:20.283Z,83.76
2022-10-11T07:26:21.712Z,84.00
2022-10-11T07:27:23.556Z,83.83
2022-10-11T07:28:25.485Z,83.97
2022-10-11T07:29:27.024Z,83.96
2022-10-11T07:30:28.821Z,84.11
2022-10-11T07:31:30.314Z,83.72
2022-10-11T07:32:31.783Z,83.57
2022-10-11T07:33:33.460Z,83.85
2022-10-11T07:34:35.248Z,83.71
2022-10-11T07:35:37.405Z,83.54
2022-10-11T07:36:39.002Z,83.50
2022-10-11T07:37:40.454Z,83.55
2022-10-11T07:38:44.715Z,83.81
2022-10-11T07:39:46.556Z,83.76
2022-10-11T07:40:48.089Z,83.68
2022-10-11T07:41:49.529Z,83.42
2022-10-11T07:42:51.303Z,83.79
2022-10-11T07:43:54.488Z,83.75
2022-10-11T07:44:56.274Z,83.79
2022-10-11T07:46:00.586Z,83.72
2022-10-11T07:47:02.083Z,83.78
2022-10-11T07:48:03.617Z,83.73
2022-10-11T07:49:05.073Z,83.61
2022-10-11T07:50:07.593Z,83.67
2022-10-11T07:51:13.870Z,83.69
2022-10-11T07:52:15.336Z,83.16
2022-10-11T07:53:16.796Z,83.01
2022-10-11T07:54:18.592Z,83.34
2022-10-11T07:55:20.014Z,83.04
2022-10-11T07:56:24.234Z,82.81
2022-10-11T07:57:25.753Z,83.16
2022-10-11T07:58:27.242Z,83.05
2022-10-11T07:59:29.046Z,83.07
2022-10-11T08:00:30.579Z,82.91
2022-10-11T08:01:32.751Z,82.64
2022-10-11T08:02:34.280Z,82.71
2022-10-11T08:03:36.687Z,82.80
2022-10-11T08:04:38.550Z,82.66
2022-10-11T08:05:39.991Z,82.79
2022-10-11T08:06:42.331Z,82.76
2022-10-11T08:07:43.798Z,82.99
2022-10-11T08:08:45.327Z,82.82
2022-10-11T08:09:47.095Z,82.55
2022-10-11T08:10:48.517Z,82.46
2022-10-11T08:11:49.937Z,82.93
2022-10-11T08:12:51.592Z,82.65
2022-10-11T08:13:53.171Z,82.90
2022-10-11T08:14:55.758Z,82.53
2022-10-11T08:15:57.765Z,82.46
2022-10-11T08:16:59.211Z,82.29
2022-10-11T08:18:00.660Z,82.18
2022-10-11T08:19:03.503Z,82.36
2022-10-11T08:20:05.454Z,82.34
2022-10-11T08:21:12.517Z,82.39
2022-10-11T08:22:14.023Z,81.78
2022-10-11T08:23:19.388Z,81.50
2022-10-11T08:24:21.296Z,81.24
2022-10-11T08:25:22.749Z,81.60
2022-10-11T08:26:24.554Z,81.67
2022-10-11T08:27:26.031Z,81.35
2022-10-11T08:28:27.502Z,80.72
2022-10-11T08:29:29.246Z,80.66
2022-10-11T08:30:30.709Z,80.90
2022-10-11T08:31:33.036Z,80.28
2022-10-11T08:32:34.529Z,80.13
2022-10-11T08:33:36.555Z,79.83
2022-10-11T08:34:38.579Z,79.48
2022-10-11T08:35:39.988Z,79.68
2022-10-11T08:36:41.479Z,79.37
2022-10-11T08:37:42.964Z,79.06
2022-10-11T08:38:44.850Z,78.35
2022-10-11T08:39:46.324Z,78.21
2022-10-11T08:40:50.744Z,78.45
2022-10-11T08:42:01.235Z,77.40
2022-10-11T08:43:18.575Z,77.87
2022-10-11T08:45:09.937Z,78.46
2022-10-11T08:46:09.197Z,78.18
2022-10-11T08:47:21.469Z,77.81
2022-10-11T08:48:34.583Z,76.93
2022-10-11T08:49:36.771Z,76.39
2022-10-11T08:50:38.726Z,76.65
2022-10-11T08:51:45.580Z,76.60
2022-10-11T08:52:53.615Z,76.49
2022-10-11T08:54:07.966Z,76.25
2022-10-11T08:55:25.279Z,75.77
2022-10-11T08:56:28.055Z,75.96
2022-10-11T08:57:33.787Z,75.81
2022-10-11T08:59:03.405Z,75.60
2022-10-11T09:00:08.872Z,75.38
2022-10-11T09:01:20.644Z,74.47
2022-10-11T09:03:03.047Z,74.21
2022-10-11T09:04:03.979Z,74.35
2022-10-11T09:05:06.514Z,74.38
2022-10-11T09:06:23.229Z,74.64
2022-10-11T09:08:06.307Z,74.72
2022-10-11T09:09:08.064Z,74.41
2022-10-11T09:10:31.103Z,73.80
2022-10-11T09:11:54.124Z,73.76
2022-10-11T09:13:18.892Z,74.34
2022-10-11T09:14:23.681Z,74.68
2022-10-11T09:15:29.000Z,74.45
2022-10-11T09:16:42.656Z,73.69
2022-10-11T09:17:50.885Z,73.24
2022-10-11T09:19:29.048Z,72.55
2022-10-11T09:20:56.467Z,73.81
2022-10-11T09:22:00.814Z,74.30
2022-10-11T09:23:33.483Z,74.28
2022-10-11T09:24:37.546Z,73.62
2022-10-11T09:26:15.035Z,73.87
2022-10-11T09:27:43.450Z,73.41
2022-10-11T09:29:17.882Z,73.70
2022-10-11T09:30:20.609Z,73.61
2022-10-11T09:31:22.829Z,73.63
2022-10-11T09:32:28.546Z,73.81
2022-10-11T09:33:51.483Z,73.42
2022-10-11T09:35:09.753Z,73.57
2022-10-11T09:36:28.533Z,73.92
2022-10-11T09:37:35.500Z,73.40
2022-10-11T09:38:52.405Z,73.35
2022-10-11T09:40:03.218Z,73.47
2022-10-11T09:41:23.383Z,73.93
2022-10-11T09:42:24.861Z,74.03
2022-10-11T09:43:26.368Z,73.14
2022-10-11T09:44:35.327Z,73.08
2022-10-11T09:45:36.876Z,72.66
2022-10-11T09:46:42.243Z,72.73
2022-10-11T09:47:43.678Z,72.93
2022-10-11T09:48:45.419Z,72.30
2022-10-11T09:50:01.052Z,73.72
2022-10-11T09:51:06.469Z,73.39
2022-10-11T09:52:19.675Z,72.91
2022-10-11T09:53:52.879Z,72.90
2022-10-11T09:54:58.256Z,72.90
2022-10-11T09:56:05.221Z,72.84
2022-10-11T09:57:19.610Z,72.78
2022-10-11T09:58:31.099Z,73.59
2022-10-11T09:59:35.175Z,73.62
2022-10-11T10:00:36.710Z,73.83
2022-10-11T10:01:38.227Z,74.10
2022-10-11T10:02:54.402Z,74.04
2022-10-11T10:04:17.380Z,74.00
2022-10-11T10:05:20.260Z,74.30
2022-10-11T10:06:25.390Z,74.44
2022-10-11T10:07:28.573Z,74.01
2022-10-11T10:08:29.978Z,73.55
2022-10-11T10:09:31.853Z,73.79
2022-10-11T10:10:40.737Z,73.75
2022-10-11T10:11:42.125Z,73.73
2022-10-11T10:12:43.662Z,73.89
2022-10-11T10:13:51.585Z,73.88
2022-10-11T10:15:14.581Z,73.46
2022-10-11T10:16:37.175Z,73.42
2022-10-11T10:17:38.682Z,73.52
2022-10-11T10:18:48.846Z,72.96
2022-10-11T10:19:55.386Z,72.03
2022-10-11T10:21:01.877Z,71.25
2022-10-11T10:22:03.323Z,71.36
2022-10-11T10:23:26.914Z,71.79
2022-10-11T10:24:41.190Z,71.69
2022-10-11T10:25:51.021Z,71.25
2022-10-11T10:27:22.710Z,71.06
2022-10-11T10:28:27.146Z,70.47
2022-10-11T10:29:28.653Z,69.79
2022-10-11T10:30:35.332Z,69.49
2022-10-11T10:33:11.626Z,70.45
2022-10-11T10:34:16.743Z,70.10
2022-10-11T10:35:32.431Z,70.95
2022-10-11T10:36:36.654Z,71.13
2022-10-11T10:37:48.064Z,70.42
2022-10-11T10:38:56.193Z,70.26
2022-10-11T10:40:18.646Z,69.89
2022-10-11T10:41:20.156Z,69.69
2022-10-11T10:42:21.872Z,69.42
2022-10-11T10:43:26.722Z,69.61
2022-10-11T10:44:28.554Z,69.50
2022-10-11T10:45:44.192Z,69.34
2022-10-11T10:47:06.981Z,69.47
2022-10-11T10:48:22.207Z,69.68
2022-10-11T10:49:53.130Z,69.34
2022-10-11T10:51:00.938Z,69.47
2022-10-11T10:52:13.052Z,70.10
2022-10-11T10:53:24.708Z,69.82
2022-10-11T10:54:38.782Z,69.77
2022-10-11T10:55:45.960Z,69.77
2022-10-11T10:57:00.756Z,70.46
2022-10-11T10:58:30.083Z,70.42
2022-10-11T10:59:54.170Z,69.93
2022-10-11T11:01:04.063Z,69.92
2022-10-11T11:02:35.486Z,69.69
2022-10-11T11:04:08.665Z,70.16
2022-10-11T11:05:18.797Z,70.46
2022-10-11T11:06:42.663Z,70.58
2022-10-11T11:07:50.087Z,70.65
2022-10-11T11:08:56.631Z,70.54
2022-10-11T11:10:07.073Z,70.66
2022-10-11T11:11:31.733Z,70.47
2022-10-11T11:13:14.599Z,70.89
2022-10-11T11:14:34.312Z,71.64
2022-10-11T11:16:01.626Z,71.28
2022-10-11T11:17:15.665Z,71.33
2022-10-11T11:18:34.153Z,70.92
2022-10-11T11:19:41.241Z,71.51
2022-10-11T11:21:22.361Z,70.64
2022-10-11T11:22:57.669Z,71.01
2022-10-11T11:24:27.193Z,70.49
2022-10-11T11:25:34.712Z,69.75
2022-10-11T11:26:48.214Z,69.64
2022-10-11T11:28:20.546Z,68.68
2022-10-11T11:29:34.324Z,68.40
2022-10-11T11:30:41.120Z,68.58
2022-10-11T11:31:57.615Z,67.72
2022-10-11T11:33:22.234Z,67.51
2022-10-11T11:34:28.911Z,68.10
2022-10-11T11:35:43.941Z,68.29
2022-10-11T11:36:56.582Z,68.41
2022-10-11T11:38:06.499Z,68.45
2022-10-11T11:39:33.432Z,68.01
2022-10-11T11:40:39.342Z,67.71
2022-10-11T11:41:46.896Z,68.77
2022-10-11T11:42:51.343Z,68.56
2022-10-11T11:44:28.508Z,68.81
2022-10-11T11:45:40.581Z,68.61
2022-10-11T11:46:57.870Z,68.78
2022-10-11T11:48:09.927Z,68.25
2022-10-11T11:49:21.856Z,67.89
2022-10-11T11:50:25.058Z,68.09
2022-10-11T11:51:35.266Z,68.18
2022-10-11T11:52:41.081Z,68.08
2022-10-11T11:54:02.800Z,68.55
2022-10-11T11:55:44.643Z,68.87
2022-10-11T11:57:07.288Z,68.95
2022-10-11T11:58:23.646Z,68.85
2022-10-11T11:59:58.242Z,69.04
2022-10-11T12:01:17.861Z,69.25
2022-10-11T12:02:31.459Z,69.36
2022-10-11T12:03:46.970Z,69.86
2022-10-11T12:04:50.591Z,69.90
2022-10-11T12:06:14.526Z,69.59
2022-10-11T12:07:19.552Z,69.47
2022-10-11T12:08:32.141Z,68.91
2022-10-11T12:09:36.031Z,69.22
2022-10-11T12:10:49.633Z,69.04
2022-10-11T12:11:56.777Z,68.77
2022-10-11T12:13:02.694Z,68.62
2022-10-11T12:14:27.725Z,69.41
2022-10-11T12:15:29.361Z,69.71
2022-10-11T12:16:31.109Z,69.38
2022-10-11T12:17:33.398Z,70.14
2022-10-11T12:18:41.905Z,70.09
2022-10-11T12:20:24.927Z,69.65
2022-10-11T12:21:38.685Z,69.85
2022-10-11T12:23:00.666Z,69.52
2022-10-11T12:24:21.477Z,69.15
2022-10-11T12:25:22.840Z,68.98
2022-10-11T12:26:27.154Z,69.02
2022-10-11T12:27:40.475Z,68.33
2022-10-11T12:28:42.342Z,68.78
2022-10-11T12:29:51.529Z,68.88
2022-10-11T12:31:03.172Z,69.00
2022-10-11T12:32:04.756Z,69.05
2022-10-11T12:33:14.705Z,68.63
2022-10-11T12:34:21.551Z,68.29
2022-10-11T12:35:32.311Z,68.29
2022-10-11T12:36:50.501Z,68.00
2022-10-11T12:37:52.408Z,67.55
2022-10-11T12:39:18.646Z,66.84
2022-10-11T12:40:54.816Z,66.30
2022-10-11T12:42:21.269Z,66.07
2022-10-11T12:43:26.935Z,65.25
2022-10-11T12:44:29.501Z,65.08
2022-10-11T12:45:33.088Z,65.71
2022-10-11T12:46:42.271Z,65.73
2022-10-11T12:47:59.840Z,66.38
2022-10-11T12:49:24.644Z,66.17
2022-10-11T12:50:39.280Z,64.72
2022-10-11T12:51:59.883Z,63.31
2022-10-11T12:53:04.198Z,63.69
2022-10-11T12:54:36.140Z,63.98
2022-10-11T12:55:48.066Z,64.05
2022-10-11T12:56:56.925Z,64.39
2022-10-11T12:58:26.990Z,63.91
2022-10-11T12:59:32.301Z,64.72
2022-10-11T13:01:03.849Z,63.45
2022-10-11T13:02:28.691Z,63.51
2022-10-11T13:03:41.430Z,64.39
2022-10-11T13:04:42.917Z,64.33
2022-10-11T13:05:49.716Z,64.13
2022-10-11T13:07:01.079Z,64.00
2022-10-11T13:08:12.772Z,63.68
2022-10-11T13:09:24.869Z,63.02
2022-10-11T13:10:32.700Z,62.61
2022-10-11T13:11:43.740Z,62.82
2022-10-11T13:12:47.817Z,62.17
2022-10-11T13:14:26.720Z,61.69
2022-10-11T13:15:28.773Z,60.74
2022-10-11T13:16:47.942Z,60.33
2022-10-11T13:17:51.783Z,60.46
2022-10-11T13:19:00.438Z,60.95
2022-10-11T13:20:05.919Z,59.88
2022-10-11T13:21:27.598Z,58.21
2022-10-11T13:22:29.158Z,58.72
2022-10-11T13:23:38.366Z,58.15
2022-10-11T13:24:40.754Z,59.16
2022-10-11T13:25:42.334Z,59.35
2022-10-11T13:26:46.684Z,59.41
2022-10-11T13:27:50.170Z,59.54
2022-10-11T13:28:51.828Z,59.69
2022-10-11T13:29:59.630Z,59.94
2022-10-11T13:31:01.506Z,59.66
2022-10-11T13:32:07.825Z,59.59
2022-10-11T13:33:20.121Z,60.04
2022-10-11T13:34:23.639Z,60.13
2022-10-11T13:35:37.268Z,60.32
2022-10-11T13:36:39.400Z,60.51
2022-10-11T13:37:48.512Z,60.43
2022-10-11T13:38:58.170Z,60.26
2022-10-11T13:39:59.694Z,60.45
2022-10-11T13:41:04.436Z,61.19
2022-10-11T13:42:10.837Z,61.75
2022-10-11T13:43:15.608Z,61.45
2022-10-11T13:44:17.606Z,61.58
2022-10-11T13:45:23.266Z,61.91
2022-10-11T13:46:26.888Z,61.53
2022-10-11T13:47:30.281Z,61.63
2022-10-11T13:48:32.400Z,61.69
2022-10-11T13:49:40.192Z,61.41
2022-10-11T13:50:46.119Z,60.86
2022-10-11T13:51:57.983Z,61.12
2022-10-11T13:53:21.156Z,61.21
2022-10-11T13:54:22.952Z,61.20
2022-10-11T13:55:24.442Z,61.34
2022-10-11T13:56:28.297Z,60.72
2022-10-11T13:57:33.414Z,60.24
2022-10-11T13:58:40.691Z,59.11
2022-10-11T13:59:43.735Z,57.53
2022-10-11T14:01:05.925Z,56.69
2022-10-11T14:02:18.733Z,56.11
2022-10-11T14:03:22.099Z,55.97
2022-10-11T14:04:29.357Z,55.63
2022-10-11T14:05:36.662Z,55.36
2022-10-11T14:06:40.951Z,55.52
2022-10-11T14:07:42.490Z,55.11
2022-10-11T14:08:59.567Z,55.22
2022-10-11T14:10:01.084Z,54.96
2022-10-11T14:11:06.366Z,55.55
2022-10-11T14:12:29.991Z,55.34
2022-10-11T14:13:42.374Z,55.35
2022-10-11T14:14:44.033Z,55.32
2022-10-11T14:15:45.517Z,55.76
2022-10-11T14:16:58.631Z,55.99
2022-10-11T14:18:01.935Z,55.94
2022-10-11T14:19:10.891Z,56.33
2022-10-11T14:20:22.571Z,55.99
2022-10-11T14:21:28.764Z,56.04
2022-10-11T14:22:30.514Z,55.85
2022-10-11T14:23:32.286Z,56.20
2022-10-11T14:24:33.746Z,56.19
2022-10-11T14:25:35.695Z,56.57
2022-10-11T14:26:41.402Z,56.85